Time;durP1;ratioP1;P1;durP2;ratioP2;P2;SDS_P1;SDS_P2;PMS_P1;PMS_P2;Temp;Humidity;BMP_temperature;BMP_pressure;BME280_temperature;BME280_humidity;BME280_pressure;Samples;Min_cycle;Max_cycle;Signal;HPM_P1;HPM_P2
2021/03/02 00:00:23;;;;;;;;;;;;;;;5.02;73.91;103223.38;1556963;90;20203;-74
2021/03/02 00:02:55;;;;;;;;;;;;;;;5.10;73.92;103214.32;1612937;89;20208;-73
2021/03/02 00:05:27;;;;;;;;;;;;;;;5.17;73.69;103216.77;1612883;88;20248;-73
2021/03/02 00:08:00;;;;;;;;;;;;;;;5.21;73.52;103211.30;1613010;89;20217;-73
2021/03/02 00:10:31;;;;;;;;;;;;;;;5.26;73.16;103212.52;1595440;88;20215;-73
2021/03/02 00:13:03;;;;;;;;;;;;;;;5.25;72.86;103208.58;1577418;91;20212;-72
2021/03/02 00:15:36;;;;;;;;;;;;;;;5.21;72.75;103198.91;1587853;90;20199;-74
2021/03/02 00:18:09;;;;;;;;;;;;;;;5.22;72.77;103205.63;1576189;90;20224;-73
2021/03/02 00:20:40;;;;;;;;;;;;;;;5.19;72.64;103210.08;1554472;91;20564;-74
2021/03/02 00:23:27;;;;;;;;;;;;;;;5.17;72.63;103203.00;1572569;91;20184;-73
2021/03/02 00:25:59;;;;;;;;;;;;;;;5.14;72.50;103202.81;1572693;91;20237;-73
2021/03/02 00:28:31;;;;;;;;;;;;;;;5.10;72.53;103201.43;1572522;91;20244;-73
2021/03/02 00:31:03;;;;;;;;;;;;;;;5.14;72.57;103203.34;1572645;91;20501;-72
2021/03/02 00:33:36;;;;;;;;;;;;;;;5.13;72.48;103194.20;1572495;91;20203;-73
2021/03/02 00:36:08;;;;;;;;;;;;;;;5.11;72.35;103192.64;1572508;91;20252;-74
2021/03/02 00:38:40;;;;;;;;;;;;;;;5.09;72.40;103191.45;1572568;91;20529;-72
2021/03/02 00:41:11;;;;;;;;;;;;;;;5.14;72.29;103197.30;1572566;91;20240;-71
2021/03/02 00:43:43;;;;;;;;;;;;;;;5.19;72.15;103193.55;1572567;91;20558;-75
2021/03/02 00:46:16;;;;;;;;;;;;;;;5.19;72.04;103189.95;1572568;91;20207;-73
2021/03/02 00:48:48;;;;;;;;;;;;;;;5.13;71.86;103192.83;1572501;91;20197;-74
2021/03/02 00:51:20;;;;;;;;;;;;;;;5.04;71.94;103189.70;1572769;91;20203;-74
2021/03/02 00:53:52;;;;;;;;;;;;;;;4.95;72.04;103189.28;1564398;90;20539;-73
2021/03/02 00:56:24;;;;;;;;;;;;;;;4.90;72.22;103189.43;1566512;91;20231;-73
2021/03/02 00:58:56;;;;;;;;;;;;;;;4.87;72.38;103183.73;1572378;91;20197;-74
2021/03/02 01:01:27;;;;;;;;;;;;;;;4.93;72.49;103186.33;1572594;91;20521;-73
2021/03/02 01:03:59;;;;;;;;;;;;;;;4.98;72.35;103185.34;1572490;91;20205;-73
2021/03/02 01:06:31;;;;;;;;;;;;;;;4.98;72.15;103181.21;1563701;90;20191;-73
2021/03/02 01:09:06;;;;;;;;;;;;;;;4.96;71.87;103183.27;1568361;91;20509;-72
2021/03/02 01:11:38;;;;;;;;;;;;;;;4.95;71.78;103173.30;1572433;91;20328;-72
2021/03/02 01:14:10;;;;;;;;;;;;;;;4.93;71.64;103180.33;1572709;91;20192;-74
2021/03/02 01:16:42;;;;;;;;;;;;;;;4.93;71.50;103164.31;1572604;91;20193;-74
2021/03/02 01:19:14;;;;;;;;;;;;;;;4.91;71.37;103165.00;1569664;90;20208;-73
2021/03/02 01:21:46;;;;;;;;;;;;;;;4.92;71.33;103161.22;1569222;91;20556;-73
2021/03/02 01:24:18;;;;;;;;;;;;;;;4.93;71.21;103168.45;1569031;91;20335;-73
2021/03/02 01:26:49;;;;;;;;;;;;;;;4.97;70.96;103164.35;1569118;91;20196;-76
2021/03/02 01:29:23;;;;;;;;;;;;;;;4.97;70.66;103169.36;1569202;91;20196;-72
2021/03/02 01:31:54;;;;;;;;;;;;;;;4.97;70.44;103163.85;1569034;91;20193;-74
2021/03/02 01:34:26;;;;;;;;;;;;;;;5.00;70.10;103164.89;1569178;91;20344;-73
2021/03/02 01:36:58;;;;;;;;;;;;;;;5.00;69.93;103164.89;1569184;91;20203;-76
2021/03/02 01:39:30;;;;;;;;;;;;;;;5.01;69.70;103158.34;1569213;91;20238;-73
2021/03/02 01:42:01;;;;;;;;;;;;;;;4.98;69.04;103156.44;1568984;91;20200;-73
2021/03/02 01:44:33;;;;;;;;;;;;;;;4.94;68.66;103160.03;1568914;91;20204;-73
2021/03/02 01:47:05;;;;;;;;;;;;;;;4.92;68.53;103158.47;1569103;91;20272;-72
2021/03/02 01:49:37;;;;;;;;;;;;;;;4.93;68.18;103160.19;1568961;91;20648;-73
2021/03/02 01:52:10;;;;;;;;;;;;;;;4.91;67.87;103159.00;1569033;91;20267;-73
2021/03/02 01:54:42;;;;;;;;;;;;;;;4.88;67.14;103157.94;1568871;91;20235;-72
2021/03/02 01:57:13;;;;;;;;;;;;;;;4.84;66.54;103161.18;1550535;91;20197;-73
2021/03/02 01:59:45;;;;;;;;;;;;;;;4.82;66.33;103167.38;1569002;91;20199;-74
2021/03/02 02:02:19;;;;;;;;;;;;;;;4.82;65.83;103165.46;1569153;91;20276;-72
2021/03/02 02:04:52;;;;;;;;;;;;;;;4.82;65.28;103171.50;1569204;91;20192;-72
2021/03/02 02:07:38;;;;;;;;;;;;;;;4.80;64.84;103168.90;1568960;91;20285;-73
2021/03/02 02:10:16;;;;;;;;;;;;;;;4.79;64.57;103163.05;1569274;91;20193;-74
2021/03/02 02:12:54;;;;;;;;;;;;;;;4.84;64.31;103154.30;1569235;91;20249;-73
2021/03/02 02:15:31;;;;;;;;;;;;;;;4.85;64.42;103154.64;1569021;91;20229;-72
2021/03/02 02:18:21;;;;;;;;;;;;;;;4.83;64.49;103152.05;1568982;91;20264;-74
2021/03/02 02:21:29;;;;;;;;;;;;;;;4.84;64.60;103150.17;1588036;90;20187;-73
2021/03/02 02:24:25;;;;;;;;;;;;;;;4.83;64.73;103148.45;1587956;90;20344;-73
2021/03/02 02:26:57;;;;;;;;;;;;;;;4.87;64.91;103152.08;1514504;93;20236;-73
2021/03/02 02:29:31;;;;;;;;;;;;;;;4.89;65.24;103147.80;1583601;90;20270;-72
2021/03/02 02:32:04;;;;;;;;;;;;;;;4.84;65.45;103140.55;1588213;90;20199;-72
2021/03/02 02:34:37;;;;;;;;;;;;;;;4.81;65.75;103151.86;1587910;90;20244;-71
2021/03/02 02:37:09;;;;;;;;;;;;;;;4.80;65.83;103146.01;1588207;90;20191;-74
2021/03/02 02:39:41;;;;;;;;;;;;;;;4.83;65.97;103153.95;1588133;90;20560;-73
2021/03/02 02:42:13;;;;;;;;;;;;;;;4.85;66.04;103158.28;1587668;89;20191;-71
2021/03/02 02:44:44;;;;;;;;;;;;;;;4.85;66.17;103150.52;1587986;90;20259;-71
2021/03/02 02:47:16;;;;;;;;;;;;;;;4.79;66.15;103149.79;1588037;90;20207;-70
2021/03/02 02:49:48;;;;;;;;;;;;;;;4.74;66.23;103148.03;1588097;90;20199;-69
2021/03/02 02:52:20;;;;;;;;;;;;;;;4.74;66.28;103152.16;1587986;90;20206;-71
2021/03/02 02:54:56;;;;;;;;;;;;;;;4.71;66.37;103153.34;1588086;90;20569;-70
2021/03/02 02:57:28;;;;;;;;;;;;;;;4.75;66.50;103148.37;1588129;90;20565;-69
2021/03/02 03:00:02;;;;;;;;;;;;;;;4.81;66.48;103151.86;1588158;90;20223;-70
2021/03/02 03:02:33;;;;;;;;;;;;;;;4.86;66.34;103148.98;1567547;90;20299;-68
2021/03/02 03:05:15;;;;;;;;;;;;;;;4.90;65.95;103149.52;1567586;90;20624;-71
2021/03/02 03:07:58;;;;;;;;;;;;;;;4.94;65.76;103148.18;1588052;90;20235;-71
2021/03/02 03:10:30;;;;;;;;;;;;;;;4.95;65.47;103149.91;1580535;90;20329;-71
2021/03/02 03:13:04;;;;;;;;;;;;;;;4.92;65.47;103149.72;1588152;90;20259;-68
2021/03/02 03:15:36;;;;;;;;;;;;;;;4.87;65.36;103147.08;1588077;90;20278;-70
2021/03/02 03:18:09;;;;;;;;;;;;;;;4.84;65.58;103152.39;1588284;90;20191;-70
2021/03/02 03:20:41;;;;;;;;;;;;;;;4.85;65.33;103147.77;1578771;90;20264;-70
2021/03/02 03:23:15;;;;;;;;;;;;;;;4.83;64.98;103147.92;1572397;91;20196;-71
2021/03/02 03:25:46;;;;;;;;;;;;;;;4.82;65.31;103148.95;1572588;91;20200;-69
2021/03/02 03:28:18;;;;;;;;;;;;;;;4.82;65.12;103143.98;1572486;91;20288;-70
2021/03/02 03:30:50;;;;;;;;;;;;;;;4.82;65.56;103143.45;1572337;91;20200;-71
2021/03/02 03:33:22;;;;;;;;;;;;;;;4.83;65.72;103141.58;1571798;91;20196;-71
2021/03/02 03:35:57;;;;;;;;;;;;;;;4.85;65.60;103138.14;1550982;91;20623;-71
2021/03/02 03:38:29;;;;;;;;;;;;;;;4.84;65.36;103139.16;1548617;93;20254;-71
2021/03/02 03:41:01;;;;;;;;;;;;;;;4.82;65.72;103133.81;1563668;91;20566;-69
2021/03/02 03:43:34;;;;;;;;;;;;;;;4.83;65.71;103123.69;1584958;91;20205;-71
2021/03/02 03:46:06;;;;;;;;;;;;;;;4.78;65.55;103131.56;1581310;90;20552;-70
2021/03/02 03:48:38;;;;;;;;;;;;;;;4.70;65.41;103128.77;1558604;91;20198;-71
2021/03/02 03:51:10;;;;;;;;;;;;;;;4.67;65.47;103134.58;1572606;91;20234;-72
2021/03/02 03:53:42;;;;;;;;;;;;;;;4.66;65.59;103133.73;1572620;91;20248;-71
2021/03/02 03:56:13;;;;;;;;;;;;;;;4.68;64.96;103130.30;1558107;91;20224;-71
2021/03/02 03:58:45;;;;;;;;;;;;;;;4.67;64.35;103123.58;1572583;91;20526;-71
2021/03/02 04:01:17;;;;;;;;;;;;;;;4.67;64.06;103134.08;1565055;91;20203;-70
2021/03/02 04:03:49;;;;;;;;;;;;;;;4.70;63.92;103132.36;1583443;91;20221;-72
2021/03/02 04:06:21;;;;;;;;;;;;;;;4.69;63.89;103130.64;1585043;91;20202;-72
2021/03/02 04:08:52;;;;;;;;;;;;;;;4.70;64.05;103124.11;1585158;91;20230;-73
2021/03/02 04:11:24;;;;;;;;;;;;;;;4.69;63.80;103130.64;1585237;91;20285;-70
2021/03/02 04:13:58;;;;;;;;;;;;;;;4.70;63.81;103126.02;1585057;91;20538;-71
2021/03/02 04:16:32;;;;;;;;;;;;;;;4.73;63.82;103132.55;1585003;90;20269;-73
2021/03/02 04:19:05;;;;;;;;;;;;;;;4.78;63.76;103125.56;1585225;91;20201;-72
2021/03/02 04:21:37;;;;;;;;;;;;;;;4.78;63.61;103123.30;1583392;87;20241;-74
2021/03/02 04:24:09;;;;;;;;;;;;;;;4.77;63.50;103127.09;1569134;91;20201;-70
2021/03/02 04:26:41;;;;;;;;;;;;;;;4.79;63.39;103125.02;1556190;91;20263;-71
2021/03/02 04:29:13;;;;;;;;;;;;;;;4.83;63.61;103125.06;1549997;91;20203;-71
2021/03/02 04:31:45;;;;;;;;;;;;;;;4.83;63.24;103121.78;1533997;93;20209;-73
2021/03/02 04:34:17;;;;;;;;;;;;;;;4.81;63.24;103131.22;1545357;93;20187;-69
2021/03/02 04:36:49;;;;;;;;;;;;;;;4.78;63.38;103132.94;1534332;94;20204;-74
2021/03/02 04:39:20;;;;;;;;;;;;;;;4.80;63.19;103123.99;1545451;91;20553;-70
2021/03/02 04:41:52;;;;;;;;;;;;;;;4.85;63.18;103128.50;1534815;93;20564;-71
2021/03/02 04:44:24;;;;;;;;;;;;;;;4.88;63.21;103122.69;1557433;91;20254;-72
2021/03/02 04:46:56;;;;;;;;;;;;;;;4.84;62.83;103125.41;1546510;92;20558;-71
2021/03/02 04:49:27;;;;;;;;;;;;;;;4.81;62.75;103132.09;1569170;91;20272;-71
2021/03/02 04:51:59;;;;;;;;;;;;;;;4.78;62.32;103130.19;1563434;91;20200;-71
2021/03/02 04:54:31;;;;;;;;;;;;;;;4.73;61.96;103131.18;1540736;92;20273;-71
2021/03/02 04:57:02;;;;;;;;;;;;;;;4.69;61.80;103136.14;1549680;91;20557;-71
2021/03/02 04:59:34;;;;;;;;;;;;;;;4.69;61.78;103138.02;1533981;93;20271;-71
2021/03/02 05:02:06;;;;;;;;;;;;;;;4.73;61.83;103138.06;1561264;91;20208;-72
2021/03/02 05:04:38;;;;;;;;;;;;;;;4.78;61.64;103139.81;1549539;91;20243;-70
2021/03/02 05:07:10;;;;;;;;;;;;;;;4.84;61.56;103141.38;1542555;92;20200;-74
2021/03/02 05:09:41;;;;;;;;;;;;;;;4.89;60.86;103139.02;1565831;91;20239;-77
2021/03/02 05:12:13;;;;;;;;;;;;;;;4.92;60.16;103137.83;1552718;91;20198;-73
2021/03/02 05:14:45;;;;;;;;;;;;;;;4.99;59.89;103134.27;1545107;92;20317;-72
2021/03/02 05:17:16;;;;;;;;;;;;;;;5.10;59.70;103135.86;1564903;91;20206;-69
2021/03/02 05:19:49;;;;;;;;;;;;;;;5.13;59.75;103142.43;1581811;91;20526;-72
2021/03/02 05:22:22;;;;;;;;;;;;;;;5.18;59.67;103136.77;1594191;88;20268;-72
2021/03/02 05:24:56;;;;;;;;;;;;;;;5.20;59.46;103139.36;1586834;90;20202;-72
2021/03/02 05:27:27;;;;;;;;;;;;;;;5.19;59.87;103143.14;1606870;88;20267;-70
2021/03/02 05:29:59;;;;;;;;;;;;;;;5.18;59.85;103145.02;1572006;89;20288;-71
2021/03/02 05:32:31;;;;;;;;;;;;;;;5.17;59.96;103133.66;1568519;90;20283;-73
2021/03/02 05:35:03;;;;;;;;;;;;;;;5.16;60.40;103132.45;1577282;91;20236;-70
2021/03/02 05:37:36;;;;;;;;;;;;;;;5.20;60.29;103137.98;1587752;90;20294;-69
2021/03/02 05:40:09;;;;;;;;;;;;;;;5.18;60.33;103139.52;1574402;89;20279;-71
2021/03/02 05:42:41;;;;;;;;;;;;;;;5.20;60.44;103136.61;1580313;89;20299;-76
2021/03/02 05:45:14;;;;;;;;;;;;;;;5.21;60.21;103132.31;1585780;90;20283;-70
2021/03/02 05:47:48;;;;;;;;;;;;;;;5.22;60.00;103133.16;1582260;91;20204;-77
2021/03/02 05:50:20;;;;;;;;;;;;;;;5.15;60.11;103138.98;1583022;91;20267;-76
2021/03/02 05:52:51;;;;;;;;;;;;;;;5.09;60.19;103134.14;1583216;91;20604;-74
2021/03/02 05:55:23;;;;;;;;;;;;;;;5.08;60.33;103132.42;1587682;90;20275;-74
2021/03/02 05:57:55;;;;;;;;;;;;;;;5.10;60.21;103130.35;1587764;89;20683;-76
2021/03/02 06:00:27;;;;;;;;;;;;;;;5.18;60.39;103129.00;1576849;89;20275;-75
2021/03/02 06:03:00;;;;;;;;;;;;;;;5.22;60.17;103134.54;1587689;90;20191;-82
2021/03/02 06:05:35;;;;;;;;;;;;;;;5.25;60.25;103136.45;1580998;89;20287;-75
2021/03/02 06:08:09;;;;;;;;;;;;;;;5.27;60.15;103140.42;1575774;90;20425;-78
2021/03/02 06:10:41;;;;;;;;;;;;;;;5.25;59.99;103125.43;1585151;89;20322;-76
2021/03/02 06:13:13;;;;;;;;;;;;;;;5.28;59.99;103129.75;1558929;92;20345;-78
2021/03/02 06:15:56;;;;;;;;;;;;;;;5.34;59.98;103129.96;1581516;91;20344;-76
2021/03/02 06:18:27;;;;;;;;;;;;;;;5.41;60.04;103132.89;1583487;91;20271;-75
2021/03/02 06:21:13;;;;;;;;;;;;;;;5.47;60.38;103130.84;1583301;91;20295;-78
2021/03/02 06:23:52;;;;;;;;;;;;;;;5.48;60.10;103135.32;1568787;90;20556;-74
2021/03/02 06:26:25;;;;;;;;;;;;;;;5.48;60.06;103128.44;1539541;92;20290;-75
2021/03/02 06:28:57;;;;;;;;;;;;;;;5.53;60.14;103131.55;1562341;90;20197;-71
2021/03/02 06:31:42;;;;;;;;;;;;;;;5.56;60.47;103129.86;1562375;92;20197;-70
2021/03/02 06:34:17;;;;;;;;;;;;;;;5.58;60.47;103128.66;1544992;92;20192;-72
2021/03/02 06:37:01;;;;;;;;;;;;;;;5.60;60.29;103120.20;1538293;92;20208;-71
2021/03/02 06:39:42;;;;;;;;;;;;;;;5.65;60.36;103124.70;1538703;92;20244;-72
2021/03/02 06:42:14;;;;;;;;;;;;;;;5.68;60.41;103114.20;1535853;92;20529;-72
2021/03/02 06:44:51;;;;;;;;;;;;;;;5.70;60.20;103109.41;1538322;92;20582;-72
2021/03/02 06:47:42;;;;;;;;;;;;;;;5.68;59.79;103108.69;1538559;93;20216;-72
2021/03/02 06:50:17;;;;;;;;;;;;;;;5.65;59.42;103104.03;1538709;93;20200;-71
2021/03/02 06:52:50;;;;;;;;;;;;;;;5.66;59.30;103101.13;1538518;92;20275;-71
2021/03/02 06:55:23;;;;;;;;;;;;;;;5.66;59.19;103100.24;1538500;93;20287;-72
2021/03/02 06:58:15;;;;;;;;;;;;;;;5.66;59.25;103104.37;1538417;92;20299;-70
2021/03/02 07:00:49;;;;;;;;;;;;;;;5.63;58.88;103099.22;1538623;93;20307;-70
2021/03/02 07:03:30;;;;;;;;;;;;;;;5.59;58.78;103095.94;1538499;92;20272;-70
2021/03/02 07:06:07;;;;;;;;;;;;;;;5.58;58.65;103094.73;1538630;92;20208;-70
2021/03/02 07:08:38;;;;;;;;;;;;;;;5.60;58.19;103098.16;1538710;92;20567;-71
2021/03/02 07:11:10;;;;;;;;;;;;;;;5.58;57.88;103087.34;1538519;93;20204;-70
2021/03/02 07:13:42;;;;;;;;;;;;;;;5.58;57.75;103091.97;1538550;93;20271;-71
2021/03/02 07:16:14;;;;;;;;;;;;;;;5.61;57.59;103093.02;1538733;93;20814;-71
2021/03/02 07:18:48;;;;;;;;;;;;;;;5.61;57.62;103095.78;1538551;93;20195;-70
2021/03/02 07:21:21;;;;;;;;;;;;;;;5.64;57.69;103085.78;1538664;92;20196;-71
2021/03/02 07:23:53;;;;;;;;;;;;;;;5.64;57.66;103095.42;1542113;92;20276;-71
2021/03/02 07:26:25;;;;;;;;;;;;;;;5.65;57.53;103094.39;1557283;92;20645;-70
2021/03/02 07:28:57;;;;;;;;;;;;;;;5.66;57.57;103094.73;1557556;92;20245;-70
2021/03/02 07:31:31;;;;;;;;;;;;;;;5.67;57.76;103094.57;1557427;92;20261;-70
2021/03/02 07:34:03;;;;;;;;;;;;;;;5.71;57.71;103090.95;1557526;92;20253;-72
2021/03/02 07:36:36;;;;;;;;;;;;;;;5.72;57.73;103088.04;1539767;92;20244;-70
2021/03/02 07:39:16;;;;;;;;;;;;;;;5.77;57.78;103088.91;1557628;92;20605;-73
2021/03/02 07:41:48;;;;;;;;;;;;;;;5.80;58.00;103088.08;1557587;92;20208;-69
2021/03/02 07:44:20;;;;;;;;;;;;;;;5.86;58.07;103087.39;1557638;92;20272;-71
2021/03/02 07:46:56;;;;;;;;;;;;;;;5.87;58.22;103086.35;1557339;92;20219;-71
2021/03/02 07:49:30;;;;;;;;;;;;;;;5.90;58.22;103077.76;1557393;92;20283;-70
2021/03/02 07:52:05;;;;;;;;;;;;;;;5.94;58.33;103073.64;1557459;92;20205;-71
2021/03/02 07:54:36;;;;;;;;;;;;;;;5.98;58.65;103075.00;1557458;92;20215;-70
2021/03/02 07:57:19;;;;;;;;;;;;;;;6.02;58.67;103078.27;1557396;92;20236;-70
2021/03/02 08:00:18;;;;;;;;;;;;;;;6.05;58.91;103075.19;1557469;92;20215;-72
2021/03/02 08:03:19;;;;;;;;;;;;;;;6.11;59.02;103069.82;1551762;92;20606;-71
2021/03/02 08:05:59;;;;;;;;;;;;;;;6.19;58.83;103069.84;1557472;92;20279;-70
2021/03/02 08:08:31;;;;;;;;;;;;;;;6.17;59.11;103077.41;1555193;92;20208;-71
2021/03/02 08:11:05;;;;;;;;;;;;;;;6.16;59.53;103072.93;1557403;92;20244;-71
2021/03/02 08:13:42;;;;;;;;;;;;;;;6.20;59.66;103066.55;1555209;92;20241;-72
2021/03/02 08:16:14;;;;;;;;;;;;;;;6.24;59.91;103074.83;1557511;92;20208;-71
2021/03/02 08:18:47;;;;;;;;;;;;;;;6.24;60.62;103070.69;1557318;92;20212;-71
2021/03/02 08:21:22;;;;;;;;;;;;;;;6.24;61.18;103069.31;1555077;92;20270;-71
2021/03/02 08:23:55;;;;;;;;;;;;;;;6.29;61.62;103061.38;1558225;92;20241;-70
2021/03/02 08:26:29;;;;;;;;;;;;;;;6.34;61.90;103057.59;1557476;92;20628;-71
2021/03/02 08:29:17;;;;;;;;;;;;;;;6.41;61.97;103055.84;1557334;92;20308;-70
2021/03/02 08:31:50;;;;;;;;;;;;;;;6.42;61.92;103049.29;1557474;92;20243;-70
2021/03/02 08:34:22;;;;;;;;;;;;;;;6.41;61.63;103047.57;1557689;92;20529;-71
2021/03/02 08:36:53;;;;;;;;;;;;;;;6.36;61.60;103035.66;1539385;92;20211;-72
2021/03/02 08:39:25;;;;;;;;;;;;;;;6.41;61.70;103033.23;1557304;92;20317;-71
2021/03/02 08:41:57;;;;;;;;;;;;;;;6.47;61.50;103026.17;1557377;92;20244;-71
2021/03/02 08:44:29;;;;;;;;;;;;;;;6.52;60.54;103020.96;1557525;92;20274;-70
2021/03/02 08:47:01;;;;;;;;;;;;;;;6.61;59.56;103018.54;1557330;92;20375;-69
2021/03/02 08:49:33;;;;;;;;;;;;;;;6.72;58.93;103014.86;1557523;92;20539;-70
2021/03/02 08:52:05;;;;;;;;;;;;;;;6.84;57.71;103012.59;1557502;92;20207;-70
2021/03/02 08:54:51;;;;;;;;;;;;;;;6.86;57.44;103004.98;1557600;92;20240;-70
2021/03/02 08:57:22;;;;;;;;;;;;;;;6.93;57.37;103008.23;1557076;92;20233;-71
2021/03/02 08:59:54;;;;;;;;;;;;;;;7.02;57.06;103003.53;1557431;92;20215;-71
2021/03/02 09:02:26;;;;;;;;;;;;;;;7.05;56.87;103004.03;1557586;92;20280;-70
2021/03/02 09:05:00;;;;;;;;;;;;;;;7.08;57.02;103005.58;1557437;92;20255;-70
2021/03/02 09:07:31;;;;;;;;;;;;;;;7.11;57.11;102999.67;1557337;92;20545;-70
2021/03/02 09:10:06;;;;;;;;;;;;;;;7.16;56.98;102990.33;1557529;92;20247;-71
2021/03/02 09:12:42;;;;;;;;;;;;;;;7.11;56.80;102993.64;1554715;92;20280;-70
2021/03/02 09:15:14;;;;;;;;;;;;;;;7.05;56.91;102987.46;1552911;92;20371;-70
2021/03/02 09:17:46;;;;;;;;;;;;;;;7.01;57.02;102992.16;1557370;92;20574;-70
2021/03/02 09:20:18;;;;;;;;;;;;;;;6.99;56.95;102992.83;1557367;92;20245;-69
2021/03/02 09:22:50;;;;;;;;;;;;;;;7.00;57.20;102984.88;1557501;92;20200;-69
2021/03/02 09:25:25;;;;;;;;;;;;;;;7.10;57.31;102992.44;1557386;92;20225;-70
2021/03/02 09:27:57;;;;;;;;;;;;;;;7.23;57.35;102988.55;1552861;92;20200;-71
2021/03/02 09:30:29;;;;;;;;;;;;;;;7.28;56.95;102986.44;1557441;92;20208;-71
2021/03/02 09:33:02;;;;;;;;;;;;;;;7.35;57.06;102983.28;1557288;92;20215;-70
2021/03/02 09:35:34;;;;;;;;;;;;;;;7.41;57.02;102977.02;1557145;92;20204;-70
2021/03/02 09:38:11;;;;;;;;;;;;;;;7.44;56.88;102977.18;1557480;92;20276;-70
2021/03/02 09:40:45;;;;;;;;;;;;;;;7.45;56.76;102977.00;1536817;92;20320;-71
2021/03/02 09:43:16;;;;;;;;;;;;;;;7.46;56.75;102970.42;1557541;92;20255;-71
2021/03/02 09:45:54;;;;;;;;;;;;;;;7.48;56.88;102963.34;1557387;92;20200;-69
2021/03/02 09:48:27;;;;;;;;;;;;;;;7.53;56.74;102963.11;1557497;92;20517;-70
2021/03/02 09:50:59;;;;;;;;;;;;;;;7.58;56.64;102960.66;1557614;92;20211;-70
2021/03/02 09:53:36;;;;;;;;;;;;;;;7.57;56.48;102953.41;1557266;92;20306;-71
2021/03/02 09:56:11;;;;;;;;;;;;;;;7.57;56.68;102960.84;1557516;92;20536;-69
2021/03/02 09:58:45;;;;;;;;;;;;;;;7.55;56.74;102949.11;1555096;92;20232;-70
2021/03/02 10:01:20;;;;;;;;;;;;;;;7.55;56.64;102944.46;1555419;92;20670;-70
2021/03/02 10:03:53;;;;;;;;;;;;;;;7.61;57.05;102942.34;1557428;92;20228;-71
2021/03/02 10:06:26;;;;;;;;;;;;;;;7.67;56.86;102925.01;1557373;92;20284;-69
2021/03/02 10:08:59;;;;;;;;;;;;;;;7.72;56.91;102915.60;1557449;92;20216;-70
2021/03/02 10:11:31;;;;;;;;;;;;;;;7.82;56.77;102916.20;1557464;91;20532;-70
2021/03/02 10:14:05;;;;;;;;;;;;;;;7.85;56.71;102904.75;1557625;92;20204;-69
2021/03/02 10:16:38;;;;;;;;;;;;;;;7.88;56.70;102904.91;1558852;92;20242;-72
2021/03/02 10:19:21;;;;;;;;;;;;;;;7.91;56.62;102901.23;1558722;92;20554;-71
2021/03/02 10:21:58;;;;;;;;;;;;;;;7.93;56.71;102895.52;1557870;92;20212;-71
2021/03/02 10:24:31;;;;;;;;;;;;;;;7.95;56.65;102883.77;1557475;92;20624;-70
2021/03/02 10:27:14;;;;;;;;;;;;;;;7.95;56.74;102889.30;1554440;91;20243;-71
2021/03/02 10:29:46;;;;;;;;;;;;;;;7.99;56.97;102887.34;1534155;94;20356;-70
2021/03/02 10:32:18;;;;;;;;;;;;;;;8.07;56.92;102887.23;1545145;93;20235;-71
2021/03/02 10:34:51;;;;;;;;;;;;;;;8.13;56.83;102888.38;1536139;92;20291;-71
2021/03/02 10:37:23;;;;;;;;;;;;;;;8.15;56.55;102882.98;1565152;90;20200;-72
2021/03/02 10:39:55;;;;;;;;;;;;;;;8.16;56.64;102877.81;1556435;91;20235;-69
2021/03/02 10:42:27;;;;;;;;;;;;;;;8.19;56.58;102876.06;1533955;94;20553;-72
2021/03/02 10:45:01;;;;;;;;;;;;;;;8.16;56.38;102863.11;1558330;91;20197;-70
2021/03/02 10:47:33;;;;;;;;;;;;;;;8.14;56.68;102863.29;1569158;91;20216;-68
2021/03/02 10:50:07;;;;;;;;;;;;;;;8.16;56.73;102854.30;1568579;91;20625;-71
2021/03/02 10:52:38;;;;;;;;;;;;;;;8.16;56.73;102847.37;1568975;91;20205;-71
2021/03/02 10:55:11;;;;;;;;;;;;;;;8.16;56.86;102830.78;1569090;91;20537;-71
2021/03/02 10:57:45;;;;;;;;;;;;;;;8.22;57.00;102831.94;1557099;91;20187;-71
2021/03/02 11:00:18;;;;;;;;;;;;;;;8.25;56.76;102825.48;1533928;93;20299;-70
2021/03/02 11:02:50;;;;;;;;;;;;;;;8.27;56.70;102826.69;1545019;93;20219;-69
2021/03/02 11:05:22;;;;;;;;;;;;;;;8.30;56.82;102818.86;1533834;94;20323;-71
2021/03/02 11:07:53;;;;;;;;;;;;;;;8.34;56.60;102821.55;1545198;93;20253;-71
2021/03/02 11:10:25;;;;;;;;;;;;;;;8.39;56.61;102810.76;1534037;94;20264;-71
2021/03/02 11:12:57;;;;;;;;;;;;;;;8.42;56.46;102808.12;1545187;93;20524;-72
2021/03/02 11:15:30;;;;;;;;;;;;;;;8.45;56.52;102798.91;1533995;94;20264;-69
2021/03/02 11:18:02;;;;;;;;;;;;;;;8.44;56.36;102783.91;1545149;93;20210;-69
2021/03/02 11:20:36;;;;;;;;;;;;;;;8.37;56.44;102786.58;1531287;94;20557;-71
2021/03/02 11:23:07;;;;;;;;;;;;;;;8.32;56.79;102784.91;1545309;93;20187;-70
2021/03/02 11:25:40;;;;;;;;;;;;;;;8.29;56.89;102778.41;1534010;94;20272;-71
2021/03/02 11:28:12;;;;;;;;;;;;;;;8.29;57.17;102781.17;1550078;92;20551;-71
2021/03/02 11:30:44;;;;;;;;;;;;;;;8.31;57.23;102772.64;1577303;91;20184;-70
2021/03/02 11:33:16;;;;;;;;;;;;;;;8.28;57.31;102767.00;1565066;89;20351;-70
2021/03/02 11:35:49;;;;;;;;;;;;;;;8.28;57.53;102758.70;1566312;91;20220;-72
2021/03/02 11:38:20;;;;;;;;;;;;;;;8.29;57.29;102748.47;1583092;90;20263;-72
2021/03/02 11:40:52;;;;;;;;;;;;;;;8.26;57.37;102755.25;1587430;90;20330;-72
2021/03/02 11:43:24;;;;;;;;;;;;;;;8.26;57.58;102752.48;1587557;90;20312;-72
2021/03/02 11:45:56;;;;;;;;;;;;;;;8.29;57.79;102747.96;1587593;90;20295;-72
2021/03/02 11:48:28;;;;;;;;;;;;;;;8.36;57.86;102746.13;1587972;90;20270;-70
2021/03/02 11:51:01;;;;;;;;;;;;;;;8.46;58.09;102743.88;1587424;90;20291;-71
2021/03/02 11:53:35;;;;;;;;;;;;;;;8.58;57.91;102737.31;1587731;90;20274;-70
2021/03/02 11:56:07;;;;;;;;;;;;;;;8.68;57.80;102731.77;1587721;90;20267;-71
2021/03/02 11:58:39;;;;;;;;;;;;;;;8.83;57.73;102733.95;1587589;90;20271;-72
2021/03/02 12:01:10;;;;;;;;;;;;;;;8.96;57.61;102736.84;1587765;90;20300;-71
2021/03/02 12:03:42;;;;;;;;;;;;;;;9.10;57.25;102733.11;1587644;90;20670;-71
2021/03/02 12:06:14;;;;;;;;;;;;;;;9.19;56.99;102719.42;1587801;90;20303;-71
2021/03/02 12:08:46;;;;;;;;;;;;;;;9.25;56.87;102722.77;1587814;90;20552;-72
2021/03/02 12:11:18;;;;;;;;;;;;;;;9.27;56.66;102722.58;1587769;90;20536;-70
2021/03/02 12:13:50;;;;;;;;;;;;;;;9.26;56.45;102716.20;1587616;90;20271;-70
2021/03/02 12:16:22;;;;;;;;;;;;;;;9.23;56.41;102706.88;1587673;90;20292;-69
2021/03/02 12:18:54;;;;;;;;;;;;;;;9.20;56.61;102700.38;1587797;90;20235;-70
2021/03/02 12:21:28;;;;;;;;;;;;;;;9.21;56.67;102697.92;1587616;90;20572;-70
2021/03/02 12:24:00;;;;;;;;;;;;;;;9.22;56.85;102691.31;1587673;90;20264;-70
2021/03/02 12:26:32;;;;;;;;;;;;;;;9.22;56.93;102694.09;1587698;90;20252;-71
2021/03/02 12:29:04;;;;;;;;;;;;;;;9.28;56.93;102691.02;1584545;89;20311;-72
2021/03/02 12:31:36;;;;;;;;;;;;;;;9.36;56.96;102691.72;1572480;91;20216;-72
2021/03/02 12:34:09;;;;;;;;;;;;;;;9.45;56.92;102684.98;1572495;91;20228;-72
2021/03/02 12:36:41;;;;;;;;;;;;;;;9.53;56.84;102679.25;1572596;91;20216;-71
2021/03/02 12:39:13;;;;;;;;;;;;;;;9.63;56.49;102683.03;1572541;91;20601;-71
2021/03/02 12:41:44;;;;;;;;;;;;;;;9.64;56.15;102670.87;1572464;91;20235;-70
2021/03/02 12:44:16;;;;;;;;;;;;;;;9.60;56.09;102648.80;1572385;91;20573;-71
2021/03/02 12:46:48;;;;;;;;;;;;;;;9.57;56.03;102645.03;1572623;91;20243;-72
2021/03/02 12:49:19;;;;;;;;;;;;;;;9.56;56.22;102639.17;1572504;91;20236;-71
2021/03/02 12:51:51;;;;;;;;;;;;;;;9.52;56.16;102623.47;1572640;91;20197;-71
2021/03/02 12:54:23;;;;;;;;;;;;;;;9.51;56.48;102619.52;1572665;91;20245;-70
2021/03/02 12:56:56;;;;;;;;;;;;;;;9.50;56.56;102624.22;1572633;91;20584;-71
2021/03/02 12:59:27;;;;;;;;;;;;;;;9.52;56.61;102615.67;1572644;91;20216;-72
2021/03/02 13:01:59;;;;;;;;;;;;;;;9.50;56.70;102602.04;1572567;91;20244;-72
2021/03/02 13:04:32;;;;;;;;;;;;;;;9.50;56.63;102599.27;1572440;91;20192;-72
2021/03/02 13:07:03;;;;;;;;;;;;;;;9.49;56.76;102589.77;1572686;91;20195;-72
2021/03/02 13:09:36;;;;;;;;;;;;;;;9.49;56.75;102585.05;1562964;90;20222;-71
2021/03/02 13:12:08;;;;;;;;;;;;;;;9.50;58.00;102579.86;1568319;91;20232;-70
2021/03/02 13:14:41;;;;;;;;;;;;;;;9.73;61.67;102572.02;1558544;90;20672;-71
2021/03/02 13:17:13;;;;;;;;;;;;;;;10.14;60.82;102578.87;1557568;90;20206;-69
2021/03/02 13:19:44;;;;;;;;;;;;;;;10.43;60.45;102575.70;1572160;90;20276;-72